createdAt,value
2022-11-09T00:00:16.580Z,14.62
2022-11-09T00:00:36.643Z,14.62
2022-11-09T00:00:56.714Z,14.64
2022-11-09T00:01:16.761Z,14.62
2022-11-09T00:01:36.833Z,14.59
2022-11-09T00:01:56.890Z,14.62
2022-11-09T00:02:16.951Z,14.62
2022-11-09T00:02:41.541Z,14.65
2022-11-09T00:02:57.075Z,14.61
2022-11-09T00:03:17.614Z,14.62
2022-11-09T00:03:37.202Z,14.65
2022-11-09T00:03:57.269Z,14.62
2022-11-09T00:04:17.336Z,14.65
2022-11-09T00:04:37.401Z,14.62
2022-11-09T00:04:57.473Z,14.61
2022-11-09T00:05:17.527Z,14.62
2022-11-09T00:05:37.595Z,14.62
2022-11-09T00:05:57.662Z,14.59
2022-11-09T00:06:17.720Z,14.57
2022-11-09T00:06:37.858Z,14.58
2022-11-09T00:06:57.931Z,14.58
2022-11-09T00:07:17.987Z,14.58
2022-11-09T00:07:37.979Z,14.58
2022-11-09T00:07:58.039Z,14.59
2022-11-09T00:08:18.110Z,14.55
2022-11-09T00:08:38.179Z,14.58
2022-11-09T00:09:01.405Z,14.58
2022-11-09T00:09:18.367Z,14.55
2022-11-09T00:09:38.382Z,14.57
2022-11-09T00:09:58.511Z,14.55
2022-11-09T00:10:18.483Z,14.58
2022-11-09T00:10:38.555Z,14.58
2022-11-09T00:10:58.608Z,14.59
2022-11-09T00:11:18.666Z,14.59
2022-11-09T00:11:38.741Z,14.58
2022-11-09T00:11:58.801Z,14.58
2022-11-09T00:12:18.872Z,14.58
2022-11-09T00:12:38.930Z,14.57
2022-11-09T00:12:58.975Z,14.53
2022-11-09T00:13:19.279Z,14.55
2022-11-09T00:13:39.084Z,14.53
2022-11-09T00:13:59.186Z,14.57
2022-11-09T00:14:19.248Z,14.52
2022-11-09T00:14:39.310Z,14.52
2022-11-09T00:14:59.365Z,14.52
2022-11-09T00:15:19.420Z,14.52
2022-11-09T00:15:39.486Z,14.52
2022-11-09T00:15:59.561Z,14.53
2022-11-09T00:16:19.631Z,14.53
2022-11-09T00:16:39.675Z,14.51
2022-11-09T00:16:59.741Z,14.51
2022-11-09T00:17:19.811Z,14.52
2022-11-09T00:17:39.899Z,14.49
2022-11-09T00:17:59.930Z,14.48
2022-11-09T00:18:20.007Z,14.47
2022-11-09T00:18:40.084Z,14.45
2022-11-09T00:19:00.141Z,14.44
2022-11-09T00:19:20.191Z,14.42
2022-11-09T00:19:40.253Z,14.41
2022-11-09T00:20:00.330Z,14.4
2022-11-09T00:20:20.391Z,14.38
2022-11-09T00:20:45.935Z,14.4
2022-11-09T00:21:00.501Z,14.38
2022-11-09T00:21:20.565Z,14.37
2022-11-09T00:21:40.631Z,14.35
2022-11-09T00:22:00.693Z,14.37
2022-11-09T00:22:20.755Z,14.37
2022-11-09T00:22:40.827Z,14.35
2022-11-09T00:23:00.879Z,14.34
2022-11-09T00:23:21.279Z,14.35
2022-11-09T00:23:41.017Z,14.37
2022-11-09T00:24:01.091Z,14.32
2022-11-09T00:24:21.216Z,14.32
2022-11-09T00:24:41.249Z,14.34
2022-11-09T00:25:01.302Z,14.37
2022-11-09T00:25:21.386Z,14.35
2022-11-09T00:25:41.447Z,14.35
2022-11-09T00:26:01.521Z,14.34
2022-11-09T00:26:21.565Z,14.37
2022-11-09T00:26:41.635Z,14.34
2022-11-09T00:27:01.693Z,14.32
2022-11-09T00:27:21.756Z,14.32
2022-11-09T00:27:41.821Z,14.32
2022-11-09T00:28:01.888Z,14.34
2022-11-09T00:28:21.950Z,14.37
2022-11-09T00:28:42.010Z,14.37
2022-11-09T00:29:02.080Z,14.37
2022-11-09T00:29:22.145Z,14.4
2022-11-09T00:29:42.207Z,14.38
2022-11-09T00:30:02.261Z,14.37
2022-11-09T00:30:22.317Z,14.4
2022-11-09T00:30:42.390Z,14.35
2022-11-09T00:31:02.456Z,14.35
2022-11-09T00:31:22.521Z,14.37
2022-11-09T00:31:42.590Z,14.35
2022-11-09T00:32:02.655Z,14.32
2022-11-09T00:32:27.499Z,14.34
2022-11-09T00:32:42.777Z,14.34
2022-11-09T00:33:02.861Z,14.32
2022-11-09T00:33:22.922Z,14.32
2022-11-09T00:33:42.986Z,14.3
2022-11-09T00:34:03.052Z,14.28
2022-11-09T00:34:23.114Z,14.3
2022-11-09T00:34:43.167Z,14.3
2022-11-09T00:35:03.231Z,14.3
2022-11-09T00:35:23.301Z,14.25
2022-11-09T00:35:43.382Z,14.28
2022-11-09T00:36:03.423Z,14.27
2022-11-09T00:36:23.480Z,14.28
2022-11-09T00:36:43.552Z,14.27
2022-11-09T00:37:03.607Z,14.25
2022-11-09T00:37:23.754Z,14.25
2022-11-09T00:37:43.810Z,14.27
2022-11-09T00:38:03.938Z,14.25
2022-11-09T00:38:23.865Z,14.31
2022-11-09T00:38:43.928Z,14.3
2022-11-09T00:39:03.989Z,14.28
2022-11-09T00:39:24.047Z,14.28
2022-11-09T00:39:44.101Z,14.28
2022-11-09T00:40:04.168Z,14.25
2022-11-09T00:40:24.234Z,14.24
2022-11-09T00:40:44.293Z,14.25
2022-11-09T00:41:04.357Z,14.25
2022-11-09T00:41:24.435Z,14.24
2022-11-09T00:41:44.478Z,14.23
2022-11-09T00:42:04.538Z,14.24
2022-11-09T00:42:24.609Z,14.24
2022-11-09T00:42:44.681Z,14.21
2022-11-09T00:43:04.736Z,14.2
2022-11-09T00:43:24.802Z,14.2
2022-11-09T00:43:44.863Z,14.23
2022-11-09T00:44:04.945Z,14.2
2022-11-09T00:44:25.045Z,14.2
2022-11-09T00:44:45.084Z,14.2
2022-11-09T00:45:05.135Z,14.23
2022-11-09T00:45:25.198Z,14.2
2022-11-09T00:45:45.256Z,14.2
2022-11-09T00:46:05.298Z,14.19
2022-11-09T00:46:25.392Z,14.21
2022-11-09T00:46:45.460Z,14.21
2022-11-09T00:47:05.524Z,14.19
2022-11-09T00:47:25.597Z,14.21
2022-11-09T00:47:45.636Z,14.21
2022-11-09T00:48:05.718Z,14.21
2022-11-09T00:48:25.798Z,14.23
2022-11-09T00:48:45.855Z,14.24
2022-11-09T00:49:05.898Z,14.24
2022-11-09T00:49:25.993Z,14.21
2022-11-09T00:49:46.037Z,14.23
2022-11-09T00:50:06.102Z,14.23
2022-11-09T00:50:26.154Z,14.27
2022-11-09T00:50:46.225Z,14.27
2022-11-09T00:51:06.282Z,14.27
2022-11-09T00:51:26.338Z,14.25
2022-11-09T00:51:46.409Z,14.27
2022-11-09T00:52:06.475Z,14.25
2022-11-09T00:52:26.535Z,14.24
2022-11-09T00:52:46.602Z,14.23
2022-11-09T00:53:06.654Z,14.24
2022-11-09T00:53:26.725Z,14.23
2022-11-09T00:53:46.781Z,14.24
2022-11-09T00:54:06.864Z,14.24
2022-11-09T00:54:26.907Z,14.23
2022-11-09T00:54:46.972Z,14.21
2022-11-09T00:55:07.037Z,14.23
2022-11-09T00:55:27.113Z,14.24
2022-11-09T00:55:47.170Z,14.23
2022-11-09T00:56:07.230Z,14.25
2022-11-09T00:56:27.299Z,14.24
2022-11-09T00:56:47.369Z,14.27
2022-11-09T00:57:07.424Z,14.27
2022-11-09T00:57:27.487Z,14.27
2022-11-09T00:57:47.544Z,14.24
2022-11-09T00:58:07.607Z,14.27
2022-11-09T00:58:27.685Z,14.24
2022-11-09T00:58:47.749Z,14.27
2022-11-09T00:59:07.775Z,14.27
2022-11-09T00:59:27.853Z,14.27
2022-11-09T00:59:47.929Z,14.25
2022-11-09T01:00:07.989Z,14.24
2022-11-09T01:00:28.047Z,14.28
2022-11-09T01:00:48.154Z,14.28
2022-11-09T01:01:08.274Z,14.28
2022-11-09T01:01:28.342Z,14.27
2022-11-09T01:01:48.304Z,14.28
2022-11-09T01:02:08.382Z,14.28
2022-11-09T01:02:28.425Z,14.3
2022-11-09T01:02:48.510Z,14.3
2022-11-09T01:03:08.584Z,14.3
2022-11-09T01:03:28.629Z,14.3
2022-11-09T01:03:48.696Z,14.3
2022-11-09T01:04:08.755Z,14.3
2022-11-09T01:04:28.849Z,14.31
2022-11-09T01:04:48.887Z,14.34
2022-11-09T01:05:08.989Z,14.32
2022-11-09T01:05:29.069Z,14.32
2022-11-09T01:05:49.128Z,14.32
2022-11-09T01:06:09.211Z,14.34
2022-11-09T01:06:29.378Z,14.34
2022-11-09T01:06:49.375Z,14.34
2022-11-09T01:07:09.502Z,14.37
2022-11-09T01:07:29.469Z,14.35
2022-11-09T01:07:49.517Z,14.37
2022-11-09T01:08:09.577Z,14.35
2022-11-09T01:08:29.642Z,14.35
2022-11-09T01:08:49.702Z,14.38
2022-11-09T01:09:09.759Z,14.37
2022-11-09T01:09:29.829Z,14.38
2022-11-09T01:09:49.896Z,14.4
2022-11-09T01:10:09.944Z,14.38
2022-11-09T01:10:30.006Z,14.38
2022-11-09T01:10:50.080Z,14.4
2022-11-09T01:11:10.136Z,14.4
2022-11-09T01:11:30.221Z,14.38
2022-11-09T01:11:50.281Z,14.38
2022-11-09T01:12:10.333Z,14.41
2022-11-09T01:12:30.444Z,14.41
2022-11-09T01:12:50.481Z,14.44
2022-11-09T01:13:10.595Z,14.44
2022-11-09T01:13:30.653Z,14.44
2022-11-09T01:13:50.749Z,14.45
2022-11-09T01:14:10.841Z,14.45
2022-11-09T01:14:30.887Z,14.45
2022-11-09T01:14:50.969Z,14.45
2022-11-09T01:15:11.043Z,14.44
2022-11-09T01:15:31.145Z,14.45
2022-11-09T01:15:51.211Z,14.48
2022-11-09T01:16:11.279Z,14.45
2022-11-09T01:16:31.383Z,14.51
2022-11-09T01:16:51.451Z,14.47
2022-11-09T01:17:11.496Z,14.49
2022-11-09T01:17:31.571Z,14.49
2022-11-09T01:17:51.662Z,14.48
2022-11-09T01:18:11.707Z,14.48
2022-11-09T01:18:31.792Z,14.51
2022-11-09T01:18:51.873Z,14.49
2022-11-09T01:19:11.946Z,14.48
2022-11-09T01:19:32.018Z,14.48
2022-11-09T01:19:52.101Z,14.48
2022-11-09T01:20:12.183Z,14.45
2022-11-09T01:20:32.246Z,14.48
2022-11-09T01:20:52.338Z,14.47
2022-11-09T01:21:12.419Z,14.48
2022-11-09T01:21:32.481Z,14.45
2022-11-09T01:21:52.541Z,14.47
2022-11-09T01:22:12.598Z,14.48
2022-11-09T01:22:32.658Z,14.49
2022-11-09T01:22:52.743Z,14.48
2022-11-09T01:23:12.786Z,14.49
2022-11-09T01:23:32.851Z,14.52
2022-11-09T01:23:52.919Z,14.55
2022-11-09T01:24:12.989Z,14.55
2022-11-09T01:24:33.054Z,14.55
2022-11-09T01:24:53.097Z,14.55
2022-11-09T01:25:13.176Z,14.57
2022-11-09T01:25:33.219Z,14.57
2022-11-09T01:25:53.326Z,14.57
2022-11-09T01:26:13.384Z,14.53
2022-11-09T01:26:33.452Z,14.57
2022-11-09T01:26:53.522Z,14.55
2022-11-09T01:27:13.583Z,14.55
2022-11-09T01:27:33.657Z,14.55
2022-11-09T01:27:53.726Z,14.57
2022-11-09T01:28:13.796Z,14.58
2022-11-09T01:28:33.865Z,14.57
2022-11-09T01:28:53.926Z,14.53
2022-11-09T01:29:13.990Z,14.57
2022-11-09T01:29:34.032Z,14.53
2022-11-09T01:29:54.102Z,14.53
2022-11-09T01:30:14.275Z,14.53
2022-11-09T01:30:34.240Z,14.55
2022-11-09T01:30:54.296Z,14.55
2022-11-09T01:31:14.376Z,14.55
2022-11-09T01:31:34.409Z,14.53
2022-11-09T01:31:54.473Z,14.53
2022-11-09T01:32:14.548Z,14.55
2022-11-09T01:32:34.597Z,14.55
2022-11-09T01:32:54.693Z,14.55
2022-11-09T01:33:14.755Z,14.53
2022-11-09T01:33:34.804Z,14.55
2022-11-09T01:33:54.866Z,14.53
2022-11-09T01:34:14.930Z,14.55
2022-11-09T01:34:35.002Z,14.58
2022-11-09T01:34:55.065Z,14.58
2022-11-09T01:35:15.117Z,14.59
2022-11-09T01:35:35.190Z,14.59
2022-11-09T01:35:55.240Z,14.61
2022-11-09T01:36:15.316Z,14.59
2022-11-09T01:36:35.381Z,14.61
2022-11-09T01:36:55.434Z,14.64
2022-11-09T01:37:15.514Z,14.61
2022-11-09T01:37:35.591Z,14.62
2022-11-09T01:37:55.652Z,14.64
2022-11-09T01:38:15.717Z,14.64
2022-11-09T01:38:35.784Z,14.65
2022-11-09T01:38:55.859Z,14.65
2022-11-09T01:39:15.901Z,14.64
2022-11-09T01:39:35.960Z,14.64
2022-11-09T01:39:56.041Z,14.62
2022-11-09T01:40:16.106Z,14.65
2022-11-09T01:40:36.166Z,14.62
2022-11-09T01:40:56.234Z,14.65
2022-11-09T01:41:16.293Z,14.67
2022-11-09T01:41:36.360Z,14.65
2022-11-09T01:41:56.416Z,14.64
2022-11-09T01:42:16.450Z,14.62
2022-11-09T01:42:36.543Z,14.62
2022-11-09T01:42:56.613Z,14.61
2022-11-09T01:43:17.001Z,14.61
2022-11-09T01:43:36.749Z,14.62
2022-11-09T01:43:56.815Z,14.65
2022-11-09T01:44:16.895Z,14.67
2022-11-09T01:44:36.936Z,14.67
2022-11-09T01:44:56.991Z,14.65
2022-11-09T01:45:17.054Z,14.67
2022-11-09T01:45:37.109Z,14.68
2022-11-09T01:45:57.240Z,14.67
2022-11-09T01:46:17.226Z,14.68
2022-11-09T01:46:37.257Z,14.65
2022-11-09T01:46:57.324Z,14.67
2022-11-09T01:47:17.390Z,14.67
2022-11-09T01:47:37.478Z,14.65
2022-11-09T01:47:57.551Z,14.65
2022-11-09T01:48:17.705Z,14.67
2022-11-09T01:48:37.684Z,14.65
2022-11-09T01:48:57.766Z,14.65
2022-11-09T01:49:17.787Z,14.64
2022-11-09T01:49:37.885Z,14.67
2022-11-09T01:49:58.025Z,14.65
2022-11-09T01:50:18.018Z,14.65
2022-11-09T01:50:38.075Z,14.65
2022-11-09T01:50:58.156Z,14.65
2022-11-09T01:51:18.201Z,14.64
2022-11-09T01:51:38.262Z,14.67
2022-11-09T01:51:58.445Z,14.65
2022-11-09T01:52:18.401Z,14.62
2022-11-09T01:52:38.461Z,14.64
2022-11-09T01:52:58.523Z,14.62
2022-11-09T01:53:18.992Z,14.62
2022-11-09T01:53:38.673Z,14.61
2022-11-09T01:53:58.716Z,14.62
2022-11-09T01:54:18.782Z,14.61
2022-11-09T01:54:38.856Z,14.62
2022-11-09T01:54:58.958Z,14.62
2022-11-09T01:55:18.981Z,14.61
2022-11-09T01:55:39.037Z,14.58
2022-11-09T01:55:59.123Z,14.59
2022-11-09T01:56:19.164Z,14.58
2022-11-09T01:56:39.230Z,14.57
2022-11-09T01:56:59.312Z,14.55
2022-11-09T01:57:19.364Z,14.53
2022-11-09T01:57:39.433Z,14.52
2022-11-09T01:57:59.500Z,14.51
2022-11-09T01:58:19.548Z,14.51
2022-11-09T01:58:39.610Z,14.51
2022-11-09T01:58:59.683Z,14.49
2022-11-09T01:59:19.742Z,14.47
2022-11-09T01:59:39.816Z,14.47
2022-11-09T01:59:59.884Z,14.47
2022-11-09T02:00:19.934Z,14.45
2022-11-09T02:00:39.999Z,14.42
2022-11-09T02:01:00.166Z,14.38
2022-11-09T02:01:20.295Z,14.4
2022-11-09T02:01:40.304Z,14.38
2022-11-09T02:02:00.271Z,14.37
2022-11-09T02:02:20.322Z,14.35
2022-11-09T02:02:40.383Z,14.37
2022-11-09T02:03:00.445Z,14.35
2022-11-09T02:03:20.915Z,14.35
2022-11-09T02:03:40.587Z,14.32
2022-11-09T02:04:00.649Z,14.37
2022-11-09T02:04:20.705Z,14.37
2022-11-09T02:04:40.778Z,14.37
2022-11-09T02:05:00.844Z,14.37
2022-11-09T02:05:20.891Z,14.37
2022-11-09T02:05:40.957Z,14.35
2022-11-09T02:06:01.009Z,14.37
2022-11-09T02:06:21.083Z,14.37
2022-11-09T02:06:41.239Z,14.35
2022-11-09T02:07:01.248Z,14.32
2022-11-09T02:07:21.276Z,14.31
2022-11-09T02:07:41.353Z,14.32
2022-11-09T02:08:01.365Z,14.3
2022-11-09T02:08:21.452Z,14.31
2022-11-09T02:08:41.533Z,14.3
2022-11-09T02:09:01.593Z,14.32
2022-11-09T02:09:21.667Z,14.34
2022-11-09T02:09:41.818Z,14.34
2022-11-09T02:10:01.782Z,14.31
2022-11-09T02:10:21.861Z,14.32
2022-11-09T02:10:41.910Z,14.31
2022-11-09T02:11:01.981Z,14.31
2022-11-09T02:11:22.035Z,14.3
2022-11-09T02:11:42.099Z,14.34
2022-11-09T02:12:02.141Z,14.34
2022-11-09T02:12:22.222Z,14.34
2022-11-09T02:12:42.304Z,14.34
2022-11-09T02:13:02.373Z,14.34
2022-11-09T02:13:22.586Z,14.37
2022-11-09T02:13:42.482Z,14.35
2022-11-09T02:14:02.565Z,14.35
2022-11-09T02:14:22.614Z,14.37
2022-11-09T02:14:42.663Z,14.37
2022-11-09T02:15:02.743Z,14.38
2022-11-09T02:15:22.795Z,14.38
2022-11-09T02:15:45.646Z,14.38
2022-11-09T02:16:02.911Z,14.38
2022-11-09T02:16:22.998Z,14.37
2022-11-09T02:16:43.055Z,14.38
2022-11-09T02:17:03.104Z,14.38
2022-11-09T02:17:23.161Z,14.34
2022-11-09T02:17:43.228Z,14.38
2022-11-09T02:18:03.302Z,14.37
2022-11-09T02:18:23.361Z,14.37
2022-11-09T02:18:43.483Z,14.37
2022-11-09T02:19:03.484Z,14.38
2022-11-09T02:19:23.552Z,14.38
2022-11-09T02:19:43.623Z,14.38
2022-11-09T02:20:03.688Z,14.41
2022-11-09T02:20:23.735Z,14.41
2022-11-09T02:20:43.808Z,14.4
2022-11-09T02:21:03.842Z,14.4
2022-11-09T02:21:23.884Z,14.41
2022-11-09T02:21:43.983Z,14.38
2022-11-09T02:22:04.063Z,14.4
2022-11-09T02:22:24.117Z,14.4
2022-11-09T02:22:44.184Z,14.4
2022-11-09T02:23:04.250Z,14.42
2022-11-09T02:23:24.306Z,14.42
2022-11-09T02:23:44.373Z,14.44
2022-11-09T02:24:04.441Z,14.4
2022-11-09T02:24:24.519Z,14.45
2022-11-09T02:24:44.575Z,14.44
2022-11-09T02:25:04.656Z,14.44
2022-11-09T02:25:24.718Z,14.45
2022-11-09T02:25:44.787Z,14.45
2022-11-09T02:26:04.844Z,14.47
2022-11-09T02:26:24.906Z,14.47
2022-11-09T02:26:44.955Z,14.47
2022-11-09T02:27:05.044Z,14.48
2022-11-09T02:27:25.102Z,14.47
2022-11-09T02:27:45.169Z,14.48
2022-11-09T02:28:05.227Z,14.47
2022-11-09T02:28:25.287Z,14.48
2022-11-09T02:28:45.323Z,14.48
2022-11-09T02:29:05.400Z,14.47
2022-11-09T02:29:25.464Z,14.48
2022-11-09T02:29:45.530Z,14.48
2022-11-09T02:30:05.596Z,14.48
2022-11-09T02:30:25.693Z,14.47
2022-11-09T02:30:45.728Z,14.45
2022-11-09T02:31:05.787Z,14.48
2022-11-09T02:31:25.857Z,14.48
2022-11-09T02:31:45.919Z,14.47
2022-11-09T02:32:05.990Z,14.51
2022-11-09T02:32:26.042Z,14.49
2022-11-09T02:32:46.109Z,14.51
2022-11-09T02:33:06.166Z,14.51
2022-11-09T02:33:26.227Z,14.52
2022-11-09T02:33:46.286Z,14.51
2022-11-09T02:34:06.358Z,14.55
2022-11-09T02:34:26.395Z,14.55
2022-11-09T02:34:46.478Z,14.57
2022-11-09T02:35:06.548Z,14.58
2022-11-09T02:35:26.610Z,14.57
2022-11-09T02:35:46.681Z,14.58
2022-11-09T02:36:06.745Z,14.59
2022-11-09T02:36:26.804Z,14.59
2022-11-09T02:36:46.866Z,14.59
2022-11-09T02:37:06.924Z,14.62
2022-11-09T02:37:27.001Z,14.58
2022-11-09T02:37:47.071Z,14.62
2022-11-09T02:38:07.096Z,14.62
2022-11-09T02:38:27.190Z,14.62
2022-11-09T02:38:47.344Z,14.62
2022-11-09T02:39:07.309Z,14.64
2022-11-09T02:39:27.378Z,14.62
2022-11-09T02:39:47.438Z,14.64
2022-11-09T02:40:07.508Z,14.61
2022-11-09T02:40:27.556Z,14.62
2022-11-09T02:40:47.617Z,14.62
2022-11-09T02:41:07.693Z,14.62
2022-11-09T02:41:27.764Z,14.61
2022-11-09T02:41:47.818Z,14.58
2022-11-09T02:42:10.225Z,14.59
2022-11-09T02:42:27.950Z,14.59
2022-11-09T02:42:48.036Z,14.55
2022-11-09T02:43:08.080Z,14.57
2022-11-09T02:43:28.146Z,14.55
2022-11-09T02:43:48.199Z,14.52
2022-11-09T02:44:08.275Z,14.55
2022-11-09T02:44:28.349Z,14.51
2022-11-09T02:44:48.443Z,14.52
2022-11-09T02:45:08.495Z,14.51
2022-11-09T02:45:28.569Z,14.49
2022-11-09T02:45:48.655Z,14.48
2022-11-09T02:46:08.733Z,14.49
2022-11-09T02:46:28.798Z,14.48
2022-11-09T02:46:48.863Z,14.47
2022-11-09T02:47:08.945Z,14.45
2022-11-09T02:47:29.034Z,14.42
2022-11-09T02:47:49.136Z,14.45
2022-11-09T02:48:09.176Z,14.44
2022-11-09T02:48:29.239Z,14.42
2022-11-09T02:48:49.311Z,14.41
2022-11-09T02:49:09.375Z,14.41
2022-11-09T02:49:29.443Z,14.4
2022-11-09T02:49:49.522Z,14.44
2022-11-09T02:50:09.572Z,14.42
2022-11-09T02:50:29.669Z,14.42
2022-11-09T02:50:49.743Z,14.41
2022-11-09T02:51:09.813Z,14.37
2022-11-09T02:51:29.878Z,14.4
2022-11-09T02:51:49.939Z,14.37
2022-11-09T02:52:10.052Z,14.37
2022-11-09T02:52:30.146Z,14.37
2022-11-09T02:52:50.228Z,14.32
2022-11-09T02:53:10.287Z,14.34
2022-11-09T02:53:30.386Z,14.34
2022-11-09T02:53:50.445Z,14.32
2022-11-09T02:54:10.557Z,14.32
2022-11-09T02:54:30.607Z,14.31
2022-11-09T02:54:50.693Z,14.32
2022-11-09T02:55:10.754Z,14.31
2022-11-09T02:55:30.827Z,14.31
2022-11-09T02:55:50.927Z,14.3
2022-11-09T02:56:10.998Z,14.28
2022-11-09T02:56:31.096Z,14.27
2022-11-09T02:56:51.161Z,14.28
2022-11-09T02:57:11.270Z,14.27
2022-11-09T02:57:31.372Z,14.25
2022-11-09T02:57:51.428Z,14.25
2022-11-09T02:58:11.515Z,14.27
2022-11-09T02:58:31.598Z,14.25
2022-11-09T02:58:51.663Z,14.28
2022-11-09T02:59:11.721Z,14.28
2022-11-09T02:59:31.809Z,14.3
2022-11-09T02:59:51.893Z,14.3
2022-11-09T03:00:11.947Z,14.3
2022-11-09T03:00:32.025Z,14.31
2022-11-09T03:00:52.144Z,14.34
2022-11-09T03:01:12.303Z,14.32
2022-11-09T03:01:32.366Z,14.38
2022-11-09T03:01:52.343Z,14.4
2022-11-09T03:02:12.390Z,14.4
2022-11-09T03:02:32.483Z,14.41
2022-11-09T03:02:52.571Z,14.38
2022-11-09T03:03:12.653Z,14.38
2022-11-09T03:03:32.732Z,14.4
2022-11-09T03:03:52.820Z,14.4
2022-11-09T03:04:12.907Z,14.41
2022-11-09T03:04:32.961Z,14.4
2022-11-09T03:04:53.027Z,14.42
2022-11-09T03:05:13.106Z,14.42
2022-11-09T03:05:33.164Z,14.4
2022-11-09T03:05:53.254Z,14.42
2022-11-09T03:06:13.319Z,14.44
2022-11-09T03:06:33.425Z,14.42
2022-11-09T03:06:53.490Z,14.44
2022-11-09T03:07:13.635Z,14.41
2022-11-09T03:07:33.634Z,14.41
2022-11-09T03:07:53.687Z,14.42
2022-11-09T03:08:13.778Z,14.42
2022-11-09T03:08:33.884Z,14.44
2022-11-09T03:08:53.965Z,14.41
2022-11-09T03:09:14.058Z,14.4
2022-11-09T03:09:34.094Z,14.4
2022-11-09T03:09:54.154Z,14.41
2022-11-09T03:10:14.219Z,14.37
2022-11-09T03:10:34.288Z,14.4
2022-11-09T03:10:54.336Z,14.38
2022-11-09T03:11:14.413Z,14.38
2022-11-09T03:11:34.466Z,14.41
2022-11-09T03:11:54.546Z,14.37
2022-11-09T03:12:14.598Z,14.4
2022-11-09T03:12:34.653Z,14.4
2022-11-09T03:12:54.718Z,14.37
2022-11-09T03:13:14.787Z,14.37
2022-11-09T03:13:34.854Z,14.37
2022-11-09T03:13:54.908Z,14.35
2022-11-09T03:14:15.008Z,14.38
2022-11-09T03:14:35.032Z,14.35
2022-11-09T03:14:55.098Z,14.35
2022-11-09T03:15:15.162Z,14.35
2022-11-09T03:15:35.223Z,14.35
2022-11-09T03:15:55.289Z,14.34
2022-11-09T03:16:15.364Z,14.32
2022-11-09T03:16:35.441Z,14.31
2022-11-09T03:16:55.519Z,14.31
2022-11-09T03:17:15.561Z,14.32
2022-11-09T03:17:35.633Z,14.28
2022-11-09T03:17:55.696Z,14.3
2022-11-09T03:18:15.756Z,14.3
2022-11-09T03:18:35.815Z,14.3
2022-11-09T03:18:55.883Z,14.3
2022-11-09T03:19:15.942Z,14.27
2022-11-09T03:19:35.998Z,14.27
2022-11-09T03:19:56.070Z,14.27
2022-11-09T03:20:16.134Z,14.27
2022-11-09T03:20:36.197Z,14.3
2022-11-09T03:20:56.261Z,14.28
2022-11-09T03:21:16.327Z,14.3
2022-11-09T03:21:36.386Z,14.28
2022-11-09T03:21:56.444Z,14.27
2022-11-09T03:22:16.506Z,14.25
2022-11-09T03:22:36.571Z,14.24
2022-11-09T03:22:56.632Z,14.23
2022-11-09T03:23:16.909Z,14.24
2022-11-09T03:23:36.847Z,14.24
2022-11-09T03:23:56.821Z,14.21
2022-11-09T03:24:16.891Z,14.21
2022-11-09T03:24:36.971Z,14.19
2022-11-09T03:24:57.030Z,14.2
2022-11-09T03:25:17.091Z,14.2
2022-11-09T03:25:37.147Z,14.2
2022-11-09T03:25:57.232Z,14.19
2022-11-09T03:26:17.285Z,14.2
2022-11-09T03:26:37.355Z,14.17
2022-11-09T03:26:57.387Z,14.17
2022-11-09T03:27:17.480Z,14.17
2022-11-09T03:27:37.598Z,14.19
2022-11-09T03:27:57.598Z,14.2
2022-11-09T03:28:17.623Z,14.2
2022-11-09T03:28:37.703Z,14.23
2022-11-09T03:28:57.771Z,14.23
2022-11-09T03:29:17.833Z,14.23
2022-11-09T03:29:37.908Z,14.21
2022-11-09T03:29:57.982Z,14.21
2022-11-09T03:30:18.035Z,14.23
2022-11-09T03:30:38.108Z,14.23
2022-11-09T03:30:58.186Z,14.19
2022-11-09T03:31:18.239Z,14.2
2022-11-09T03:31:38.295Z,14.2
2022-11-09T03:31:58.363Z,14.2
2022-11-09T03:32:18.437Z,14.17
2022-11-09T03:32:38.485Z,14.19
2022-11-09T03:32:58.563Z,14.17
2022-11-09T03:33:18.997Z,14.14
2022-11-09T03:33:38.680Z,14.13
2022-11-09T03:33:58.747Z,14.13
2022-11-09T03:34:18.801Z,14.13
2022-11-09T03:34:38.881Z,14.11
2022-11-09T03:34:58.958Z,14.09
2022-11-09T03:35:19.022Z,14.09
2022-11-09T03:35:39.083Z,14.03
2022-11-09T03:35:59.143Z,14.03
2022-11-09T03:36:19.289Z,14
2022-11-09T03:36:39.266Z,14
2022-11-09T03:36:59.334Z,13.99
2022-11-09T03:37:19.470Z,13.96
2022-11-09T03:37:39.532Z,13.92
2022-11-09T03:37:59.603Z,13.93
2022-11-09T03:38:19.582Z,13.9
2022-11-09T03:38:39.654Z,13.89
2022-11-09T03:38:59.730Z,13.89
2022-11-09T03:39:19.786Z,13.86
2022-11-09T03:39:39.848Z,13.84
2022-11-09T03:39:59.899Z,13.83
2022-11-09T03:40:19.958Z,13.84
2022-11-09T03:40:40.022Z,13.83
2022-11-09T03:41:00.099Z,13.82
2022-11-09T03:41:20.142Z,13.83
2022-11-09T03:41:40.205Z,13.82
2022-11-09T03:42:00.367Z,13.82
2022-11-09T03:42:20.350Z,13.82
2022-11-09T03:42:40.417Z,13.82
2022-11-09T03:43:00.467Z,13.82
2022-11-09T03:43:20.885Z,13.82
2022-11-09T03:43:40.603Z,13.77
2022-11-09T03:44:00.657Z,13.77
2022-11-09T03:44:20.724Z,13.76
2022-11-09T03:44:40.800Z,13.76
2022-11-09T03:45:00.866Z,13.76
2022-11-09T03:45:20.991Z,13.73
2022-11-09T03:45:40.987Z,13.72
2022-11-09T03:46:01.048Z,13.73
2022-11-09T03:46:21.123Z,13.73
2022-11-09T03:46:41.177Z,13.7
2022-11-09T03:47:01.229Z,13.69
2022-11-09T03:47:21.294Z,13.69
2022-11-09T03:47:41.383Z,13.69
2022-11-09T03:48:01.440Z,13.68
2022-11-09T03:48:21.509Z,13.68
2022-11-09T03:48:41.632Z,13.66
2022-11-09T03:49:01.613Z,13.68
2022-11-09T03:49:21.693Z,13.66
2022-11-09T03:49:41.747Z,13.65
2022-11-09T03:50:01.815Z,13.65
2022-11-09T03:50:21.911Z,13.63
2022-11-09T03:50:41.953Z,13.63
2022-11-09T03:51:02.042Z,13.65
2022-11-09T03:51:22.101Z,13.65
2022-11-09T03:51:42.164Z,13.65
2022-11-09T03:52:02.222Z,13.63
2022-11-09T03:52:22.281Z,13.63
2022-11-09T03:52:42.344Z,13.63
2022-11-09T03:53:02.408Z,13.65
2022-11-09T03:53:22.834Z,13.62
2022-11-09T03:53:42.504Z,13.62
2022-11-09T03:54:02.614Z,13.61
2022-11-09T03:54:22.679Z,13.58
2022-11-09T03:54:42.805Z,13.61
2022-11-09T03:55:02.785Z,13.58
2022-11-09T03:55:22.856Z,13.56
2022-11-09T03:55:42.919Z,13.56
2022-11-09T03:56:03.000Z,13.55
2022-11-09T03:56:23.030Z,13.55
2022-11-09T03:56:43.097Z,13.55
2022-11-09T03:57:03.242Z,13.54
2022-11-09T03:57:23.241Z,13.55
2022-11-09T03:57:43.347Z,13.52
2022-11-09T03:58:03.347Z,13.51
2022-11-09T03:58:23.395Z,13.51
2022-11-09T03:58:43.444Z,13.49
2022-11-09T03:59:03.519Z,13.49
2022-11-09T03:59:23.621Z,13.49
2022-11-09T03:59:43.708Z,13.51
2022-11-09T04:00:03.805Z,13.49
2022-11-09T04:00:23.855Z,13.49
2022-11-09T04:00:43.920Z,13.48
2022-11-09T04:01:03.968Z,13.49
2022-11-09T04:01:24.133Z,13.45
2022-11-09T04:01:44.161Z,13.46
2022-11-09T04:02:04.255Z,13.45
2022-11-09T04:02:24.211Z,13.45
2022-11-09T04:02:44.269Z,13.44
2022-11-09T04:03:04.318Z,13.46
2022-11-09T04:03:24.471Z,13.42
2022-11-09T04:03:44.463Z,13.44
2022-11-09T04:04:04.551Z,13.42
2022-11-09T04:04:24.632Z,13.44
2022-11-09T04:04:44.719Z,13.42
2022-11-09T04:05:04.792Z,13.39
2022-11-09T04:05:24.859Z,13.41
2022-11-09T04:05:44.913Z,13.44
2022-11-09T04:06:05.020Z,13.41
2022-11-09T04:06:25.086Z,13.41
2022-11-09T04:06:45.201Z,13.42
2022-11-09T04:07:05.246Z,13.39
2022-11-09T04:07:25.297Z,13.39
2022-11-09T04:07:45.331Z,13.41
2022-11-09T04:08:05.416Z,13.37
2022-11-09T04:08:25.492Z,13.39
2022-11-09T04:08:50.871Z,13.38
2022-11-09T04:09:05.612Z,13.35
2022-11-09T04:09:25.702Z,13.37
2022-11-09T04:09:45.757Z,13.37
2022-11-09T04:10:05.805Z,13.35
2022-11-09T04:10:25.857Z,13.33
2022-11-09T04:10:45.938Z,13.34
2022-11-09T04:11:05.994Z,13.33
2022-11-09T04:11:26.066Z,13.34
2022-11-09T04:11:46.130Z,13.34
2022-11-09T04:12:06.211Z,13.33
2022-11-09T04:12:26.305Z,13.34
2022-11-09T04:12:46.375Z,13.33
2022-11-09T04:13:06.457Z,13.31
2022-11-09T04:13:26.544Z,13.29
2022-11-09T04:13:46.608Z,13.27
2022-11-09T04:14:06.691Z,13.27
2022-11-09T04:14:26.769Z,13.28
2022-11-09T04:14:46.827Z,13.29
2022-11-09T04:15:06.911Z,13.27
2022-11-09T04:15:26.964Z,13.25
2022-11-09T04:15:47.056Z,13.25
2022-11-09T04:16:07.097Z,13.25
2022-11-09T04:16:27.206Z,13.24
2022-11-09T04:16:47.295Z,13.22
2022-11-09T04:17:07.322Z,13.21
2022-11-09T04:17:27.390Z,13.21
2022-11-09T04:17:47.456Z,13.21
2022-11-09T04:18:07.538Z,13.19
2022-11-09T04:18:27.568Z,13.18
2022-11-09T04:18:47.636Z,13.19
2022-11-09T04:19:07.834Z,13.18
2022-11-09T04:19:27.796Z,13.17